Terminal Aerodrome Forecast
Issued by NWS Jackson, KY

Home | Current Version | Previous Version | Text Only | Print | Product List | Glossary Off
Versions: 1 2 3 4 5 6 7 8 9 10 11 12 13 14

000
FTUS43 KJKL 291100
TAFJKL
TAF
KJKL 291135Z 2912/3012 VRB03KT 1SM BR VCSH OVC002
     FM291700 VRB03KT 5SM BR OVC009
     FM292000 VRB03KT P6SM OVC015=

USA.gov is the U.S. government's official web portal to all federal, state and local government web resources and services.